createdAt,value
2022-11-03T00:02:20.372Z,100986.73
2022-11-03T00:04:48.827Z,100988.64
2022-11-03T00:07:23.426Z,100989.28
2022-11-03T00:09:51.794Z,100996.45
2022-11-03T00:12:20.129Z,100996.07
2022-11-03T00:14:48.596Z,100998.38
2022-11-03T00:17:16.892Z,100995.23
2022-11-03T00:19:45.259Z,100994.98
2022-11-03T00:22:13.598Z,100995.92
2022-11-03T00:24:41.944Z,100996.93
2022-11-03T00:27:10.234Z,100991.76
2022-11-03T00:29:38.529Z,100993.14
2022-11-03T00:32:06.850Z,100991.88
2022-11-03T00:34:35.130Z,100987.39
2022-11-03T00:37:03.469Z,100990.88
2022-11-03T00:39:31.810Z,100987.27
2022-11-03T00:42:00.246Z,100988.48
2022-11-03T00:44:28.539Z,100984.88
2022-11-03T00:46:57.054Z,100984.17
2022-11-03T00:49:25.377Z,100983.31
2022-11-03T00:51:53.731Z,100982.75
2022-11-03T00:54:22.045Z,100980.49
2022-11-03T00:56:50.358Z,100982.72
2022-11-03T00:59:18.640Z,100980.30
2022-11-03T01:01:47.976Z,100979.67
2022-11-03T01:04:36.425Z,100978.17
2022-11-03T01:07:06.398Z,100980.16
2022-11-03T01:09:39.809Z,100980.11
2022-11-03T01:12:18.461Z,100979.58
2022-11-03T01:14:50.843Z,100982.14
2022-11-03T01:17:25.825Z,100982.73
2022-11-03T01:19:55.240Z,100986.14
2022-11-03T01:22:24.555Z,100980.13
2022-11-03T01:24:52.934Z,100975.32
2022-11-03T01:27:23.186Z,100978.02
2022-11-03T01:29:51.564Z,100978.08
2022-11-03T01:32:19.957Z,100981.70
2022-11-03T01:34:48.337Z,100980.68
2022-11-03T01:37:16.723Z,100979.50
2022-11-03T01:39:44.958Z,100981.13
2022-11-03T01:42:14.582Z,100984.86
2022-11-03T01:44:48.992Z,100985.48
2022-11-03T01:47:26.905Z,100984.11
2022-11-03T01:50:13.108Z,100981.67
2022-11-03T01:52:49.103Z,100974.22
2022-11-03T01:55:24.334Z,100972.67
2022-11-03T01:58:18.867Z,100973.60
2022-11-03T02:00:52.476Z,100971.08
2022-11-03T02:03:23.118Z,100969.46
2022-11-03T02:05:52.866Z,100967.48
2022-11-03T02:08:40.325Z,100961.70
2022-11-03T02:11:27.519Z,100962.51
2022-11-03T02:13:55.857Z,100962.98
2022-11-03T02:16:26.748Z,100960.34
2022-11-03T02:18:56.716Z,100957.05
2022-11-03T02:21:46.698Z,100956.49
2022-11-03T02:24:54.297Z,100953.27
2022-11-03T02:27:23.163Z,100949.19
2022-11-03T02:29:51.651Z,100950.81
2022-11-03T02:32:26.813Z,100948.30
2022-11-03T02:35:12.884Z,100944.91
2022-11-03T02:37:46.037Z,100938.27
2022-11-03T02:40:22.167Z,100939.45
2022-11-03T02:42:53.645Z,100937.15
2022-11-03T02:45:25.178Z,100934.46
2022-11-03T02:47:58.779Z,100930.55
2022-11-03T02:50:33.593Z,100933.92
2022-11-03T02:53:01.932Z,100936.57
2022-11-03T02:55:39.394Z,100937.52
2022-11-03T02:58:21.010Z,100933.44
2022-11-03T03:00:55.040Z,100928.13
2022-11-03T03:03:37.640Z,100929.52
2022-11-03T03:06:12.060Z,100929.55
2022-11-03T03:08:47.764Z,100928.05
2022-11-03T03:11:16.294Z,100923.58
2022-11-03T03:13:45.598Z,100920.33
2022-11-03T03:16:27.125Z,100920.02
2022-11-03T03:19:11.365Z,100921.40
2022-11-03T03:21:45.789Z,100916.35
2022-11-03T03:24:40.475Z,100910.92
2022-11-03T03:27:12.035Z,100909.13
2022-11-03T03:29:49.287Z,100905.23
2022-11-03T03:32:22.182Z,100902.86
2022-11-03T03:34:53.243Z,100901.80
2022-11-03T03:37:26.732Z,100900.86
2022-11-03T03:40:00.676Z,100899.42
2022-11-03T03:42:31.101Z,100895.35
2022-11-03T03:45:00.775Z,100899.91
2022-11-03T03:47:32.372Z,100898.45
2022-11-03T03:50:01.860Z,100897.20
2022-11-03T03:52:30.823Z,100902.70
2022-11-03T03:54:59.425Z,100898.52
2022-11-03T03:57:31.397Z,100894.92
2022-11-03T03:59:59.725Z,100893.44
2022-11-03T04:02:28.158Z,100889.08
2022-11-03T04:04:58.466Z,100890.55
2022-11-03T04:07:45.500Z,100888.45
2022-11-03T04:10:16.064Z,100889.46
2022-11-03T04:13:03.986Z,100889.04
2022-11-03T04:15:51.451Z,100883.10
2022-11-03T04:18:40.962Z,100884.02
2022-11-03T04:21:31.693Z,100883.79
2022-11-03T04:24:00.935Z,100881.95
2022-11-03T04:26:29.866Z,100878.55
2022-11-03T04:28:58.722Z,100884.63
2022-11-03T04:31:29.135Z,100879.69
2022-11-03T04:33:57.502Z,100879.92
2022-11-03T04:36:26.465Z,100879.48
2022-11-03T04:38:55.017Z,100875.70
2022-11-03T04:41:29.194Z,100873.49
2022-11-03T04:43:57.784Z,100869.52
2022-11-03T04:46:29.281Z,100869.02
2022-11-03T04:49:00.938Z,100866.10
2022-11-03T04:51:34.518Z,100866.82
2022-11-03T04:54:13.449Z,100859.09
2022-11-03T04:56:41.901Z,100862.25
2022-11-03T04:59:16.158Z,100864.17
2022-11-03T05:01:46.242Z,100857.83
2022-11-03T05:04:18.106Z,100856.98
2022-11-03T05:06:55.546Z,100853.59
2022-11-03T05:09:29.168Z,100853.66
2022-11-03T05:11:57.657Z,100855.77
2022-11-03T05:14:32.125Z,100848.25
2022-11-03T05:17:01.757Z,100843.44
2022-11-03T05:19:42.970Z,100844.86
2022-11-03T05:22:22.122Z,100841.80
2022-11-03T05:25:00.455Z,100840.11
2022-11-03T05:27:29.328Z,100836.38
2022-11-03T05:30:01.019Z,100833.34
2022-11-03T05:32:34.307Z,100826.65
2022-11-03T05:35:04.206Z,100827.55
2022-11-03T05:37:35.300Z,100829.62
2022-11-03T05:40:15.930Z,100827.06
2022-11-03T05:42:47.239Z,100826.22
2022-11-03T05:45:32.634Z,100826.88
2022-11-03T05:48:03.930Z,100826.16
2022-11-03T05:50:35.931Z,100824.95
2022-11-03T05:53:21.312Z,100830.08
2022-11-03T05:55:49.608Z,100827.63
2022-11-03T05:58:27.679Z,100825.06
2022-11-03T06:00:57.715Z,100821.10
2022-11-03T06:03:29.950Z,100820.73
2022-11-03T06:06:01.009Z,100813.48
2022-11-03T06:08:37.915Z,100815.56
2022-11-03T06:11:16.170Z,100820.00
2022-11-03T06:13:44.488Z,100813.02
2022-11-03T06:16:38.538Z,100819.83
2022-11-03T06:19:28.369Z,100821.84
2022-11-03T06:22:25.186Z,100826.87
2022-11-03T06:25:02.748Z,100826.84
2022-11-03T06:27:34.167Z,100826.60
2022-11-03T06:30:26.555Z,100826.55
2022-11-03T06:32:58.905Z,100828.00
2022-11-03T06:35:27.385Z,100828.55
2022-11-03T06:37:59.224Z,100829.80
2022-11-03T06:40:35.935Z,100835.39
2022-11-03T06:43:19.939Z,100837.92
2022-11-03T06:46:01.455Z,100837.02
2022-11-03T06:48:30.240Z,100837.92
2022-11-03T06:50:59.963Z,100836.58
2022-11-03T06:53:33.740Z,100834.29
2022-11-03T06:56:02.660Z,100834.91
2022-11-03T06:58:36.695Z,100832.20
2022-11-03T07:01:32.441Z,100836.48
2022-11-03T07:04:16.288Z,100837.28
2022-11-03T07:06:51.857Z,100832.42
2022-11-03T07:09:26.029Z,100830.77
2022-11-03T07:11:59.073Z,100828.94
2022-11-03T07:14:33.903Z,100824.15
2022-11-03T07:17:11.934Z,100828.60
2022-11-03T07:19:43.689Z,100827.66
2022-11-03T07:22:30.245Z,100826.09
2022-11-03T07:25:03.598Z,100824.59
2022-11-03T07:27:37.270Z,100824.14
2022-11-03T07:30:24.221Z,100820.27
2022-11-03T07:32:54.601Z,100811.53
2022-11-03T07:35:53.256Z,100812.61
2022-11-03T07:38:22.993Z,100815.39
2022-11-03T07:40:52.617Z,100813.01
2022-11-03T07:43:36.025Z,100814.77
2022-11-03T07:46:05.915Z,100810.16
2022-11-03T07:48:43.246Z,100805.91
2022-11-03T07:51:33.148Z,100801.41
2022-11-03T07:54:26.139Z,100800.23
2022-11-03T07:57:06.975Z,100797.18
2022-11-03T07:59:42.635Z,100797.89
2022-11-03T08:02:42.522Z,100797.21
2022-11-03T08:05:11.030Z,100792.02
2022-11-03T08:07:39.331Z,100786.40
2022-11-03T08:10:08.488Z,100781.27
2022-11-03T08:12:36.988Z,100779.63
2022-11-03T08:15:06.138Z,100779.58
2022-11-03T08:17:34.478Z,100774.02
2022-11-03T08:20:03.021Z,100771.70
2022-11-03T08:22:31.377Z,100768.21
2022-11-03T08:24:59.854Z,100762.61
2022-11-03T08:27:28.215Z,100751.96
2022-11-03T08:29:56.509Z,100748.55
2022-11-03T08:32:24.944Z,100742.23
2022-11-03T08:34:53.265Z,100738.41
2022-11-03T08:37:21.914Z,100735.81
2022-11-03T08:39:50.555Z,100733.38
2022-11-03T08:42:18.882Z,100731.60
2022-11-03T08:44:47.189Z,100724.73
2022-11-03T08:47:15.518Z,100723.07
2022-11-03T08:49:43.834Z,100713.14
2022-11-03T08:52:12.930Z,100702.25
2022-11-03T08:54:41.233Z,100696.03
2022-11-03T08:57:09.508Z,100690.95
2022-11-03T08:59:38.545Z,100686.88
2022-11-03T09:02:07.257Z,100685.90
2022-11-03T09:04:35.549Z,100682.45
2022-11-03T09:07:03.853Z,100672.31
2022-11-03T09:12:20.614Z,100663.55
2022-11-03T09:14:48.957Z,100661.90
2022-11-03T09:17:17.404Z,100660.71
2022-11-03T09:19:45.700Z,100659.43
2022-11-03T09:22:14.040Z,100652.10
2022-11-03T09:24:42.422Z,100657.54
2022-11-03T09:27:10.876Z,100652.91
2022-11-03T09:30:06.686Z,100651.81
2022-11-03T09:32:27.773Z,100641.63
2022-11-03T09:34:56.172Z,100638.43
2022-11-03T09:37:24.569Z,100627.89
2022-11-03T09:39:52.925Z,100627.66
2022-11-03T09:42:21.923Z,100616.43
2022-11-03T09:44:51.925Z,100615.70
2022-11-03T09:47:29.420Z,100613.36
2022-11-03T09:49:58.026Z,100617.14
2022-11-03T09:52:26.361Z,100611.41
2022-11-03T09:54:55.688Z,100605.63
2022-11-03T09:57:27.875Z,100608.42
2022-11-03T09:59:56.553Z,100606.91
2022-11-03T10:02:32.497Z,100604.61
2022-11-03T10:05:06.751Z,100606.29
2022-11-03T10:07:38.904Z,100596.15
2022-11-03T10:10:16.950Z,100598.79
2022-11-03T10:12:46.639Z,100597.85
2022-11-03T10:15:18.069Z,100597.23
2022-11-03T10:17:47.095Z,100589.80
2022-11-03T10:20:20.052Z,100587.98
2022-11-03T10:22:53.999Z,100580.63
2022-11-03T10:25:44.039Z,100577.40
2022-11-03T10:28:26.780Z,100575.02
2022-11-03T10:31:11.862Z,100564.08
2022-11-03T10:33:52.384Z,100564.35
2022-11-03T10:36:24.718Z,100555.22
2022-11-03T10:38:53.533Z,100549.37
2022-11-03T10:41:28.091Z,100547.13
2022-11-03T10:44:11.741Z,100545.20
2022-11-03T10:46:56.291Z,100536.99
2022-11-03T10:49:25.038Z,100532.39
2022-11-03T10:51:57.197Z,100526.16
2022-11-03T10:54:25.548Z,100524.27
2022-11-03T10:56:53.985Z,100523.17
2022-11-03T10:59:32.837Z,100522.20
2022-11-03T11:02:01.881Z,100514.79
2022-11-03T11:04:32.558Z,100511.60
2022-11-03T11:07:01.017Z,100507.16
2022-11-03T11:09:29.429Z,100510.94
2022-11-03T11:12:15.758Z,100500.48
2022-11-03T11:15:02.534Z,100498.08
2022-11-03T11:17:46.884Z,100487.95
2022-11-03T11:20:18.580Z,100477.72
2022-11-03T11:22:48.212Z,100472.87
2022-11-03T11:25:19.126Z,100465.73
2022-11-03T11:27:58.207Z,100458.75
2022-11-03T11:30:29.986Z,100452.59
2022-11-03T11:33:14.528Z,100445.85
2022-11-03T11:35:42.754Z,100442.20
2022-11-03T11:38:48.256Z,100433.88
2022-11-03T11:41:16.578Z,100427.00
2022-11-03T11:43:44.886Z,100428.73
2022-11-03T11:46:22.426Z,100425.41
2022-11-03T11:49:17.164Z,100419.38
2022-11-03T11:51:45.913Z,100418.17
2022-11-03T11:54:20.829Z,100415.74
2022-11-03T11:56:49.812Z,100411.34
2022-11-03T11:59:25.943Z,100408.23
2022-11-03T12:01:57.338Z,100406.64
2022-11-03T12:04:31.432Z,100402.27
2022-11-03T12:07:00.236Z,100398.41
2022-11-03T12:09:28.795Z,100394.13
2022-11-03T12:12:05.279Z,100390.39
2022-11-03T12:14:39.100Z,100384.66
2022-11-03T12:17:19.843Z,100380.38
2022-11-03T12:19:50.620Z,100381.84
2022-11-03T12:22:25.957Z,100378.98
2022-11-03T12:24:55.775Z,100379.94
2022-11-03T12:27:23.993Z,100375.34
2022-11-03T12:29:54.484Z,100368.79
2022-11-03T12:32:33.736Z,100368.72
2022-11-03T12:35:08.156Z,100367.65
2022-11-03T12:37:37.324Z,100360.77
2022-11-03T12:40:06.881Z,100354.72
2022-11-03T12:42:35.322Z,100350.27
2022-11-03T12:45:04.239Z,100348.36
2022-11-03T12:47:32.683Z,100345.15
2022-11-03T12:50:00.982Z,100340.77
2022-11-03T12:52:29.418Z,100336.34
2022-11-03T12:54:57.683Z,100336.05
2022-11-03T12:57:26.106Z,100327.31
2022-11-03T12:59:54.630Z,100324.92
2022-11-03T13:02:23.043Z,100324.20
2022-11-03T13:04:51.477Z,100320.45
2022-11-03T13:07:25.746Z,100314.71
2022-11-03T13:09:57.326Z,100310.97
2022-11-03T13:12:31.597Z,100312.29
2022-11-03T13:15:03.333Z,100309.45
2022-11-03T13:17:40.222Z,100308.95
2022-11-03T13:20:17.374Z,100304.98
2022-11-03T13:22:45.740Z,100298.77
2022-11-03T13:25:14.346Z,100290.05
2022-11-03T13:27:42.697Z,100287.78
2022-11-03T13:30:12.201Z,100285.19
2022-11-03T13:32:40.535Z,100281.31
2022-11-03T13:35:13.767Z,100277.45
2022-11-03T13:37:45.753Z,100271.90
2022-11-03T13:40:42.756Z,100267.94
2022-11-03T13:43:05.254Z,100265.59
2022-11-03T13:45:34.312Z,100263.26
2022-11-03T13:50:52.377Z,100256.55
2022-11-03T13:56:13.167Z,100244.84
2022-11-03T14:01:32.035Z,100232.91
2022-11-03T14:06:48.672Z,100219.13
2022-11-03T14:09:17.009Z,100215.18
2022-11-03T14:12:03.969Z,100209.88
2022-11-03T14:14:32.324Z,100205.84
2022-11-03T14:17:00.676Z,100206.83
2022-11-03T14:19:36.778Z,100204.27
2022-11-03T14:22:10.013Z,100199.94
2022-11-03T14:24:38.447Z,100193.58
2022-11-03T14:27:06.977Z,100186.73
2022-11-03T14:29:35.340Z,100183.59
2022-11-03T14:32:03.982Z,100186.34
2022-11-03T14:34:32.355Z,100182.27
2022-11-03T14:37:00.882Z,100181.05
2022-11-03T14:39:29.785Z,100174.23
2022-11-03T14:42:04.057Z,100175.94
2022-11-03T14:44:38.476Z,100175.10
2022-11-03T14:47:10.814Z,100174.46
2022-11-03T14:49:39.179Z,100171.88
2022-11-03T14:52:07.962Z,100170.25
2022-11-03T14:54:36.712Z,100168.05
2022-11-03T14:57:05.613Z,100167.91
2022-11-03T14:59:34.507Z,100161.12
2022-11-03T15:02:03.656Z,100154.42
2022-11-03T15:04:32.316Z,100155.16
2022-11-03T15:07:00.742Z,100155.84
2022-11-03T15:09:29.144Z,100151.09
2022-11-03T15:11:57.584Z,100149.86
2022-11-03T15:14:25.868Z,100151.17
2022-11-03T15:16:54.187Z,100148.46
2022-11-03T15:19:22.825Z,100146.45
2022-11-03T15:21:51.164Z,100144.10
2022-11-03T15:27:07.857Z,100128.34
2022-11-03T15:29:38.617Z,100122.89
2022-11-03T15:32:07.437Z,100123.17
2022-11-03T15:34:35.805Z,100121.15
2022-11-03T15:37:04.175Z,100119.98
2022-11-03T15:39:32.644Z,100123.13
2022-11-03T15:42:01.169Z,100120.83
2022-11-03T15:44:29.639Z,100116.69
2022-11-03T15:46:58.021Z,100111.90
2022-11-03T15:49:26.418Z,100111.39
2022-11-03T15:51:54.713Z,100108.81
2022-11-03T15:54:23.156Z,100103.80
2022-11-03T15:56:51.547Z,100094.52
2022-11-03T15:59:20.048Z,100090.96
2022-11-03T16:01:48.570Z,100084.48
2022-11-03T16:04:17.069Z,100074.08
2022-11-03T16:09:33.796Z,100068.37
2022-11-03T16:12:02.872Z,100068.96
2022-11-03T16:14:31.492Z,100064.17
2022-11-03T16:16:59.838Z,100059.19
2022-11-03T16:19:28.293Z,100052.05
2022-11-03T16:21:56.658Z,100049.07
2022-11-03T16:24:33.237Z,100039.97
2022-11-03T16:27:04.059Z,100036.86
2022-11-03T16:29:32.412Z,100041.64
2022-11-03T16:32:00.712Z,100041.86
2022-11-03T16:34:29.066Z,100035.41
2022-11-03T16:36:57.540Z,100032.96
2022-11-03T16:39:25.967Z,100030.05
2022-11-03T16:41:55.112Z,100031.98
2022-11-03T16:44:23.648Z,100029.28
2022-11-03T16:46:52.180Z,100030.52
2022-11-03T16:49:20.555Z,100027.24
2022-11-03T16:51:52.217Z,100029.77
2022-11-03T16:54:21.308Z,100029.55
2022-11-03T16:56:54.510Z,100025.54
2022-11-03T16:59:25.674Z,100020.77
2022-11-03T17:01:54.228Z,100017.29
2022-11-03T17:04:22.804Z,100014.08
2022-11-03T17:06:51.192Z,100003.18
2022-11-03T17:09:20.343Z,100001.05
2022-11-03T17:11:48.714Z,99992.23
2022-11-03T17:14:17.191Z,99985.45
2022-11-03T17:16:46.758Z,99976.59
2022-11-03T17:19:15.872Z,99975.24
2022-11-03T17:21:44.347Z,99975.25
2022-11-03T17:24:13.329Z,99967.16
2022-11-03T17:26:45.247Z,99964.00
2022-11-03T17:29:18.229Z,99966.58
2022-11-03T17:31:47.120Z,99959.86
2022-11-03T17:34:17.369Z,99958.48
2022-11-03T17:36:45.738Z,99962.84
2022-11-03T17:39:16.642Z,99955.02
2022-11-03T17:41:45.056Z,99950.02
2022-11-03T17:44:13.772Z,99947.44
2022-11-03T17:46:42.218Z,99942.03
2022-11-03T17:49:10.551Z,99944.23
2022-11-03T17:51:42.336Z,99939.54
2022-11-03T17:54:14.800Z,99936.20
2022-11-03T17:56:43.454Z,99935.16
2022-11-03T17:59:16.284Z,99928.39
2022-11-03T18:01:45.434Z,99923.80
2022-11-03T18:06:48.450Z,99917.84
2022-11-03T18:09:16.815Z,99915.48
2022-11-03T18:12:03.864Z,99911.32
2022-11-03T18:14:32.216Z,99908.52
2022-11-03T18:17:01.061Z,99902.40
2022-11-03T18:19:31.006Z,99900.60
2022-11-03T18:21:59.522Z,99897.34
2022-11-03T18:24:28.331Z,99893.65
2022-11-03T18:26:56.723Z,99890.02
2022-11-03T18:29:25.113Z,99885.30
2022-11-03T18:31:53.581Z,99881.14
2022-11-03T18:34:25.759Z,99875.82
2022-11-03T18:36:55.312Z,99867.00
2022-11-03T18:39:28.841Z,99864.67
2022-11-03T18:41:57.272Z,99858.66
2022-11-03T18:44:28.955Z,99851.16
2022-11-03T18:46:58.673Z,99847.66
2022-11-03T18:49:27.688Z,99843.53
2022-11-03T18:52:03.848Z,99839.20
2022-11-03T18:54:35.172Z,99836.36
2022-11-03T18:57:04.250Z,99829.98
2022-11-03T18:59:37.727Z,99823.97
2022-11-03T19:02:26.340Z,99819.67
2022-11-03T19:04:54.846Z,99815.17
2022-11-03T19:07:31.483Z,99808.41
2022-11-03T19:10:00.733Z,99804.10
2022-11-03T19:12:29.268Z,99794.48
2022-11-03T19:14:57.701Z,99790.98
2022-11-03T19:17:26.445Z,99787.40
2022-11-03T19:19:55.383Z,99781.36
2022-11-03T19:22:24.044Z,99779.36
2022-11-03T19:24:52.380Z,99774.70
2022-11-03T19:27:30.030Z,99768.09
2022-11-03T19:30:03.745Z,99760.30
2022-11-03T19:32:41.698Z,99760.73
2022-11-03T19:35:31.748Z,99755.33
2022-11-03T19:38:16.599Z,99755.80
2022-11-03T19:41:04.806Z,99757.06
2022-11-03T19:43:35.010Z,99751.37
2022-11-03T19:46:05.037Z,99747.52
2022-11-03T19:48:34.366Z,99746.27
2022-11-03T19:51:05.045Z,99741.71
2022-11-03T19:53:34.098Z,99735.58
2022-11-03T19:56:02.585Z,99732.39
2022-11-03T19:58:30.915Z,99729.96
2022-11-03T20:01:04.099Z,99725.68
2022-11-03T20:03:34.187Z,99726.48
2022-11-03T20:06:02.707Z,99716.52
2022-11-03T20:08:33.780Z,99714.16
2022-11-03T20:11:02.180Z,99710.75
2022-11-03T20:13:40.695Z,99705.39
2022-11-03T20:16:13.509Z,99700.73
2022-11-03T20:18:43.389Z,99698.29
2022-11-03T20:21:17.050Z,99695.96
2022-11-03T20:23:48.360Z,99694.48
2022-11-03T20:26:20.208Z,99688.54
2022-11-03T20:28:49.096Z,99686.61
2022-11-03T20:31:17.855Z,99687.77
2022-11-03T20:33:46.209Z,99688.03
2022-11-03T20:36:17.983Z,99687.54
2022-11-03T20:38:59.245Z,99681.90
2022-11-03T20:41:32.134Z,99681.15
2022-11-03T20:44:00.534Z,99677.39
2022-11-03T20:46:32.805Z,99674.23
2022-11-03T20:49:01.487Z,99672.27
2022-11-03T20:51:48.338Z,99669.47
2022-11-03T20:54:21.717Z,99665.48
2022-11-03T20:56:50.113Z,99662.00
2022-11-03T20:59:21.306Z,99661.89
2022-11-03T21:01:50.524Z,99659.00
2022-11-03T21:04:21.105Z,99652.06
2022-11-03T21:06:49.768Z,99644.95
2022-11-03T21:09:18.876Z,99641.25
2022-11-03T21:11:47.993Z,99634.55
2022-11-03T21:14:25.999Z,99631.50
2022-11-03T21:17:12.866Z,99631.42
2022-11-03T21:20:02.244Z,99617.17
2022-11-03T21:25:25.252Z,99605.14
2022-11-03T21:27:54.848Z,99597.45
2022-11-03T21:30:23.808Z,99595.61
2022-11-03T21:32:52.379Z,99590.38
2022-11-03T21:35:22.133Z,99588.27
2022-11-03T21:37:50.601Z,99577.45
2022-11-03T21:40:19.028Z,99574.89
2022-11-03T21:43:07.241Z,99571.21
2022-11-03T21:45:36.061Z,99566.65
2022-11-03T21:48:23.800Z,99558.66
2022-11-03T21:50:52.253Z,99549.53
2022-11-03T21:53:20.698Z,99544.05
2022-11-03T21:55:49.725Z,99534.56
2022-11-03T21:58:18.078Z,99532.84
2022-11-03T22:00:47.350Z,99536.06
2022-11-03T22:03:15.899Z,99528.23
2022-11-03T22:05:44.258Z,99523.94
2022-11-03T22:08:12.698Z,99522.98
2022-11-03T22:10:41.072Z,99523.52
2022-11-03T22:13:10.034Z,99517.13
2022-11-03T22:15:57.502Z,99510.29
2022-11-03T22:18:25.901Z,99505.29
2022-11-03T22:21:15.614Z,99496.55
2022-11-03T22:24:02.469Z,99490.19
2022-11-03T22:26:49.421Z,99485.73
2022-11-03T22:29:36.193Z,99482.45
2022-11-03T22:32:06.186Z,99481.11
2022-11-03T22:34:53.087Z,99478.71
2022-11-03T22:37:21.466Z,99475.20
2022-11-03T22:40:08.242Z,99470.18
2022-11-03T22:42:55.029Z,99467.20
2022-11-03T22:45:41.998Z,99469.80
2022-11-03T22:48:10.959Z,99464.08
2022-11-03T22:50:39.664Z,99460.63
2022-11-03T22:53:27.049Z,99461.91
2022-11-03T22:55:55.454Z,99460.55
2022-11-03T22:58:29.402Z,99451.77
2022-11-03T23:01:04.073Z,99448.71
2022-11-03T23:03:37.766Z,99449.08
2022-11-03T23:06:16.091Z,99444.96
2022-11-03T23:08:45.865Z,99446.40
2022-11-03T23:11:17.813Z,99444.71
2022-11-03T23:14:03.141Z,99442.00
2022-11-03T23:16:41.002Z,99438.45
2022-11-03T23:19:30.945Z,99438.33
2022-11-03T23:22:00.096Z,99441.42
2022-11-03T23:24:47.290Z,99436.51
2022-11-03T23:27:15.667Z,99434.42
2022-11-03T23:29:43.981Z,99433.84
2022-11-03T23:32:12.308Z,99439.82
2022-11-03T23:34:40.700Z,99435.29
2022-11-03T23:37:09.034Z,99432.15
2022-11-03T23:39:37.379Z,99430.39
2022-11-03T23:42:06.064Z,99425.55
2022-11-03T23:44:54.661Z,99423.15
2022-11-03T23:47:41.728Z,99418.02
2022-11-03T23:50:10.052Z,99415.88
2022-11-03T23:52:38.431Z,99411.87
2022-11-03T23:55:07.430Z,99412.91
2022-11-03T23:57:54.137Z,99408.86
